Saffet Bey — TCUZ — position and weather

sailwx.info

Track history (hours):
 
Tides and Currents Weather Stations Pressure Air Temp Water Temp Dewpoint Dewpoint Depression Visibility Wind Speed Wind Dir Waves Ship Positions

Saffet Bey

Last reported at 2015-Jun-29 04:33 UTC. Time now 2015-Jul-01 04:47 UTC.
Position N 37°18' E 024°54'.

Length 164 m; draft 6.5 m.

Type: Cargo ship. MMSI: 271000419.

Date/timePositionNaut miles runAvg speedWind from/ knotsBaromVisibWave heightAir tempDewpointWater temp
2015-Jun-29 04:33N 37°18' E 024°54'1615.6
2015-Jun-29 03:33N 37°27' E 025°09'1515.2
2015-Jun-29 02:33N 37°37' E 025°23'1815.5
2015-Jun-29 01:22N 37°50' E 025°40'1 0.1
2015-Jun-28 10:07N 37°51' E 025°41'712.8
2015-Jun-28 09:33N 37°46' E 025°34'1312.8
2015-Jun-28 08:33N 37°37' E 025°23'1313.0
2015-Jun-28 07:33N 37°28' E 025°11'1312.9
2015-Jun-28 06:34N 37°20' E 024°58'  
2015-Jun-22 04:33N 37°18' E 024°53'1515.4
2015-Jun-22 03:33N 37°27' E 025°09'1515.1
2015-Jun-22 02:33N 37°37' E 025°23'1514.9
2015-Jun-22 01:33N 37°48' E 025°37'1 0.1
2015-Jun-21 09:32N 37°49' E 025°38'1414.6
2015-Jun-21 08:33N 37°39' E 025°25'1414.3
2015-Jun-21 07:33N 37°29' E 025°12'1414.1
2015-Jun-21 06:33N 37°20' E 024°58'  
Track history (hours):
 
Tides and Currents Weather Stations Pressure Air Temp Water Temp Dewpoint Dewpoint Depression Visibility Wind Speed Wind Dir Waves Ship Positions

Saffet Bey

Last reported at 2015-Jun-29 04:33 UTC. Time now 2015-Jul-01 04:47 UTC.
Position N 37°18' E 024°54'.

Length 164 m; draft 6.5 m.

Type: Cargo ship. MMSI: 271000419.

Date/timePositionNaut miles runAvg speedWind from/ knotsBaromVisibWave heightAir tempDewpointWater temp
2015-Jun-29 04:33N 37°18' E 024°54'1615.6
2015-Jun-29 03:33N 37°27' E 025°09'1515.2
2015-Jun-29 02:33N 37°37' E 025°23'1815.5
2015-Jun-29 01:22N 37°50' E 025°40'1 0.1
2015-Jun-28 10:07N 37°51' E 025°41'712.8
2015-Jun-28 09:33N 37°46' E 025°34'1312.8
2015-Jun-28 08:33N 37°37' E 025°23'1313.0
2015-Jun-28 07:33N 37°28' E 025°11'1312.9
2015-Jun-28 06:34N 37°20' E 024°58'  
2015-Jun-22 04:33N 37°18' E 024°53'1515.4
2015-Jun-22 03:33N 37°27' E 025°09'1515.1
2015-Jun-22 02:33N 37°37' E 025°23'1514.9
2015-Jun-22 01:33N 37°48' E 025°37'1 0.1
2015-Jun-21 09:32N 37°49' E 025°38'1414.6
2015-Jun-21 08:33N 37°39' E 025°25'1414.3
2015-Jun-21 07:33N 37°29' E 025°12'1414.1
2015-Jun-21 06:33N 37°20' E 024°58'  

Dump ship's entire track history